createdAt,value
2018-05-12T00:00:54.530Z,15.43
2018-05-12T00:02:01.258Z,15.41
2018-05-12T00:03:08.218Z,15.40
2018-05-12T00:04:14.919Z,15.38
2018-05-12T00:05:21.662Z,15.38
2018-05-12T00:06:28.472Z,15.36
2018-05-12T00:07:35.168Z,15.35
2018-05-12T00:08:41.938Z,15.33
2018-05-12T00:09:48.646Z,15.33
2018-05-12T00:10:55.430Z,15.31
2018-05-12T00:12:02.147Z,15.30
2018-05-12T00:13:08.891Z,15.28
2018-05-12T00:14:15.682Z,15.26
2018-05-12T00:15:22.390Z,15.24
2018-05-12T00:16:29.137Z,15.24
2018-05-12T00:17:35.854Z,15.21
2018-05-12T00:18:42.550Z,15.21
2018-05-12T00:19:49.266Z,15.20
2018-05-12T00:20:56.087Z,15.18
2018-05-12T00:22:02.803Z,15.16
2018-05-12T00:23:09.535Z,15.15
2018-05-12T00:24:16.249Z,15.15
2018-05-12T00:25:22.995Z,15.11
2018-05-12T00:26:29.814Z,15.10
2018-05-12T00:27:36.519Z,15.08
2018-05-12T00:28:43.236Z,15.06
2018-05-12T00:29:49.935Z,15.05
2018-05-12T00:30:56.690Z,15.05
2018-05-12T00:32:03.384Z,15.02
2018-05-12T00:33:10.195Z,15.00
2018-05-12T00:34:16.890Z,14.99
2018-05-12T00:35:23.591Z,14.98
2018-05-12T00:36:30.323Z,14.96
2018-05-12T00:37:37.030Z,14.95
2018-05-12T00:38:43.735Z,14.93
2018-05-12T00:39:50.432Z,14.93
2018-05-12T00:40:57.255Z,14.91
2018-05-12T00:42:03.964Z,14.91
2018-05-12T00:43:10.718Z,14.88
2018-05-12T00:44:17.439Z,14.88
2018-05-12T00:45:24.141Z,14.85
2018-05-12T00:46:30.999Z,14.84
2018-05-12T00:47:37.735Z,14.83
2018-05-12T00:48:44.447Z,14.81
2018-05-12T00:49:51.170Z,14.79
2018-05-12T00:50:57.907Z,14.77
2018-05-12T00:52:04.730Z,14.76
2018-05-12T00:53:11.431Z,14.74
2018-05-12T00:54:18.155Z,14.73
2018-05-12T00:55:24.870Z,14.71
2018-05-12T00:56:32.003Z,14.69
2018-05-12T00:57:38.703Z,14.69
2018-05-12T00:58:45.425Z,14.67
2018-05-12T00:59:52.134Z,14.65
2018-05-12T01:00:58.938Z,14.65
2018-05-12T01:02:05.686Z,14.63
2018-05-12T01:03:12.480Z,14.61
2018-05-12T01:04:19.183Z,14.60
2018-05-12T01:05:26.019Z,14.59
2018-05-12T01:06:32.758Z,14.58
2018-05-12T01:07:39.715Z,14.55
2018-05-12T01:08:46.486Z,14.55
2018-05-12T01:09:53.194Z,14.54
2018-05-12T01:10:59.957Z,14.50
2018-05-12T01:12:06.671Z,14.49
2018-05-12T01:13:13.398Z,14.47
2018-05-12T01:14:20.507Z,14.46
2018-05-12T01:15:27.332Z,14.45
2018-05-12T01:16:34.055Z,14.42
2018-05-12T01:17:40.784Z,14.42
2018-05-12T01:18:47.630Z,14.39
2018-05-12T01:19:54.436Z,14.38
2018-05-12T01:21:01.207Z,14.36
2018-05-12T01:22:07.955Z,14.35
2018-05-12T01:23:14.690Z,14.34
2018-05-12T01:24:21.527Z,14.32
2018-05-12T01:25:28.279Z,14.31
2018-05-12T01:26:35.050Z,14.31
2018-05-12T01:27:41.759Z,14.30
2018-05-12T01:28:48.511Z,14.27
2018-05-12T01:29:55.304Z,14.26
2018-05-12T01:31:02.133Z,14.24
2018-05-12T01:32:08.903Z,14.22
2018-05-12T01:33:15.750Z,14.21
2018-05-12T01:34:22.558Z,14.18
2018-05-12T01:35:29.299Z,14.19
2018-05-12T01:36:36.328Z,14.15
2018-05-12T01:37:43.083Z,14.14
2018-05-12T01:38:49.835Z,14.13
2018-05-12T01:39:56.567Z,14.12
2018-05-12T01:41:03.350Z,14.10
2018-05-12T01:42:10.102Z,14.08
2018-05-12T01:43:16.826Z,14.08
2018-05-12T01:44:23.880Z,14.07
2018-05-12T01:45:30.615Z,14.03
2018-05-12T01:46:37.351Z,14.03
2018-05-12T01:47:44.110Z,14.01
2018-05-12T01:48:50.818Z,14.00
2018-05-12T01:49:57.621Z,13.98
2018-05-12T01:51:04.347Z,13.96
2018-05-12T01:52:11.096Z,13.94
2018-05-12T01:53:17.847Z,13.95
2018-05-12T01:54:24.579Z,13.92
2018-05-12T01:55:31.391Z,13.92
2018-05-12T01:56:38.149Z,13.89
2018-05-12T01:57:44.908Z,13.88
2018-05-12T01:58:51.659Z,13.87
2018-05-12T01:59:58.486Z,13.84
2018-05-12T02:01:05.283Z,13.83
2018-05-12T02:02:12.063Z,13.82
2018-05-12T02:03:18.807Z,13.81
2018-05-12T02:04:25.574Z,13.79
2018-05-12T02:05:32.346Z,13.77
2018-05-12T02:06:39.078Z,13.74
2018-05-12T02:07:45.851Z,13.74
2018-05-12T02:08:52.672Z,13.72
2018-05-12T02:09:59.395Z,13.72
2018-05-12T02:11:06.147Z,13.70
2018-05-12T02:12:12.862Z,13.68
2018-05-12T02:13:19.673Z,13.67
2018-05-12T02:14:26.447Z,13.67
2018-05-12T02:15:33.179Z,13.63
2018-05-12T02:16:40.019Z,13.63
2018-05-12T02:17:46.754Z,13.61
2018-05-12T02:18:53.547Z,13.59
2018-05-12T02:20:00.274Z,13.59
2018-05-12T02:21:07.058Z,13.56
2018-05-12T02:22:13.782Z,13.54
2018-05-12T02:23:20.539Z,13.54
2018-05-12T02:24:27.294Z,13.51
2018-05-12T02:25:34.147Z,13.50
2018-05-12T02:26:40.930Z,13.49
2018-05-12T02:27:47.764Z,13.47
2018-05-12T02:28:54.518Z,13.45
2018-05-12T02:30:01.239Z,13.46
2018-05-12T02:31:08.051Z,13.45
2018-05-12T02:32:14.830Z,13.40
2018-05-12T02:33:21.555Z,13.41
2018-05-12T02:34:28.335Z,13.38
2018-05-12T02:35:35.067Z,13.38
2018-05-12T02:36:41.782Z,13.35
2018-05-12T02:37:48.606Z,13.36
2018-05-12T02:38:55.379Z,13.35
2018-05-12T02:40:02.130Z,13.32
2018-05-12T02:41:09.139Z,13.30
2018-05-12T02:42:15.860Z,13.30
2018-05-12T02:43:22.627Z,13.28
2018-05-12T02:44:29.338Z,13.26
2018-05-12T02:45:36.140Z,13.26
2018-05-12T02:46:42.858Z,13.24
2018-05-12T02:47:49.695Z,13.21
2018-05-12T02:48:56.410Z,13.21
2018-05-12T02:50:03.219Z,13.18
2018-05-12T02:51:09.972Z,13.18
2018-05-12T02:52:16.711Z,13.16
2018-05-12T02:53:23.455Z,13.16
2018-05-12T02:54:30.292Z,13.13
2018-05-12T02:55:36.995Z,13.12
2018-05-12T02:56:43.851Z,13.11
2018-05-12T02:57:50.745Z,13.09
2018-05-12T02:58:57.488Z,13.08
2018-05-12T03:00:04.371Z,13.07
2018-05-12T03:01:11.159Z,13.05
2018-05-12T03:02:17.882Z,13.04
2018-05-12T03:03:24.631Z,13.01
2018-05-12T03:04:31.375Z,13.00
2018-05-12T03:05:38.252Z,12.99
2018-05-12T03:06:45.063Z,12.98
2018-05-12T03:07:51.838Z,12.97
2018-05-12T03:08:58.655Z,12.95
2018-05-12T03:10:05.409Z,12.92
2018-05-12T03:11:12.176Z,12.92
2018-05-12T03:12:18.899Z,12.91
2018-05-12T03:13:25.735Z,12.90
2018-05-12T03:14:32.487Z,12.87
2018-05-12T03:15:39.230Z,12.86
2018-05-12T03:16:45.955Z,12.84
2018-05-12T03:17:52.795Z,12.84
2018-05-12T03:18:59.614Z,12.82
2018-05-12T03:20:06.369Z,12.81
2018-05-12T03:21:13.163Z,12.79
2018-05-12T03:22:19.891Z,12.78
2018-05-12T03:23:26.643Z,12.76
2018-05-12T03:24:33.366Z,12.75
2018-05-12T03:25:40.187Z,12.73
2018-05-12T03:26:46.890Z,12.72
2018-05-12T03:27:53.615Z,12.70
2018-05-12T03:29:00.378Z,12.70
2018-05-12T03:30:07.234Z,12.67
2018-05-12T03:31:13.955Z,12.67
2018-05-12T03:32:20.703Z,12.64
2018-05-12T03:33:27.454Z,12.63
2018-05-12T03:34:34.158Z,12.62
2018-05-12T03:35:40.959Z,12.61
2018-05-12T03:36:47.674Z,12.60
2018-05-12T03:37:54.422Z,12.57
2018-05-12T03:39:01.182Z,12.56
2018-05-12T03:40:08.236Z,12.54
2018-05-12T03:41:14.979Z,12.55
2018-05-12T03:42:21.682Z,12.53
2018-05-12T03:43:28.500Z,12.51
2018-05-12T03:44:35.239Z,12.51
2018-05-12T03:45:41.951Z,12.46
2018-05-12T03:46:48.699Z,12.46
2018-05-12T03:47:55.415Z,12.45
2018-05-12T03:49:02.263Z,12.41
2018-05-12T03:50:08.998Z,12.41
2018-05-12T03:51:15.717Z,12.39
2018-05-12T03:52:22.466Z,12.38
2018-05-12T03:53:29.327Z,12.37
2018-05-12T03:54:36.065Z,12.36
2018-05-12T03:55:42.821Z,12.34
2018-05-12T03:56:49.555Z,12.33
2018-05-12T03:57:56.387Z,12.31
2018-05-12T03:59:03.138Z,12.30
2018-05-12T04:00:09.907Z,12.29
2018-05-12T04:01:16.902Z,12.26
2018-05-12T04:02:23.642Z,12.26
2018-05-12T04:03:30.379Z,12.24
2018-05-12T04:04:37.114Z,12.22
2018-05-12T04:05:44.614Z,12.23
2018-05-12T04:06:54.934Z,12.22
2018-05-12T04:08:07.571Z,12.20
2018-05-12T04:09:16.330Z,12.18
2018-05-12T04:10:23.074Z,12.16
2018-05-12T04:11:29.944Z,12.15
2018-05-12T04:12:36.924Z,12.14
2018-05-12T04:13:43.827Z,12.12
2018-05-12T04:14:50.639Z,12.10
2018-05-12T04:15:57.370Z,12.08
2018-05-12T04:17:04.098Z,12.08
2018-05-12T04:18:10.859Z,12.07
2018-05-12T04:19:17.726Z,12.06
2018-05-12T04:20:24.451Z,12.04
2018-05-12T04:21:31.197Z,12.03
2018-05-12T04:22:37.931Z,12.03
2018-05-12T04:23:44.791Z,12.00
2018-05-12T04:24:51.563Z,12.00
2018-05-12T04:25:58.289Z,11.97
2018-05-12T04:27:05.022Z,11.97
2018-05-12T04:28:11.735Z,11.95
2018-05-12T04:29:18.607Z,11.95
2018-05-12T04:30:25.357Z,11.92
2018-05-12T04:31:32.082Z,11.91
2018-05-12T04:32:38.793Z,11.91
2018-05-12T04:33:45.575Z,11.89
2018-05-12T04:34:52.326Z,11.89
2018-05-12T04:35:59.095Z,11.88
2018-05-12T04:37:05.823Z,11.87
2018-05-12T04:38:12.642Z,11.85
2018-05-12T04:39:19.390Z,11.84
2018-05-12T04:40:26.138Z,11.84
2018-05-12T04:41:32.858Z,11.83
2018-05-12T04:42:39.699Z,11.81
2018-05-12T04:43:46.392Z,11.80
2018-05-12T04:44:53.127Z,11.78
2018-05-12T04:45:59.835Z,11.77
2018-05-12T04:47:06.562Z,11.76
2018-05-12T04:48:13.277Z,11.76
2018-05-12T04:49:20.083Z,11.73
2018-05-12T04:50:26.771Z,11.75
2018-05-12T04:51:33.620Z,11.72
2018-05-12T04:52:40.354Z,11.72
2018-05-12T04:53:47.127Z,11.71
2018-05-12T04:54:53.848Z,11.70
2018-05-12T04:56:00.587Z,11.70
2018-05-12T04:57:07.363Z,11.68
2018-05-12T04:58:14.211Z,11.68
2018-05-12T04:59:20.982Z,11.66
2018-05-12T05:00:27.687Z,11.66
2018-05-12T05:01:34.480Z,11.64
2018-05-12T05:02:41.254Z,11.65
2018-05-12T05:03:47.930Z,11.65
2018-05-12T05:04:54.667Z,11.65
2018-05-12T05:06:01.379Z,11.63
2018-05-12T05:07:08.122Z,11.62
2018-05-12T05:08:15.195Z,11.61
2018-05-12T05:09:21.894Z,11.61
2018-05-12T05:10:28.622Z,11.61
2018-05-12T05:11:35.375Z,11.60
2018-05-12T05:12:42.075Z,11.59
2018-05-12T05:13:48.803Z,11.59
2018-05-12T05:14:55.553Z,11.57
2018-05-12T05:16:02.296Z,11.57
2018-05-12T05:17:09.052Z,11.57
2018-05-12T05:18:15.790Z,11.57
2018-05-12T05:19:22.537Z,11.55
2018-05-12T05:20:29.231Z,11.56
2018-05-12T05:21:35.905Z,11.55
2018-05-12T05:22:42.608Z,11.56
2018-05-12T05:23:49.371Z,11.54
2018-05-12T05:24:56.092Z,11.55
2018-05-12T05:26:02.769Z,11.54
2018-05-12T05:27:09.483Z,11.53
2018-05-12T05:28:16.177Z,11.53
2018-05-12T05:29:22.971Z,11.53
2018-05-12T05:30:29.729Z,11.53
2018-05-12T05:31:36.487Z,11.52
2018-05-12T05:32:43.183Z,11.52
2018-05-12T05:33:49.963Z,11.51
2018-05-12T05:34:56.698Z,11.50
2018-05-12T05:36:03.567Z,11.50
2018-05-12T05:37:10.277Z,11.50
2018-05-12T05:38:17.011Z,11.50
2018-05-12T05:39:23.737Z,11.49
2018-05-12T05:40:30.505Z,11.50
2018-05-12T05:41:37.317Z,11.49
2018-05-12T05:42:44.292Z,11.49
2018-05-12T05:43:50.979Z,11.49
2018-05-12T05:44:57.686Z,11.48
2018-05-12T05:46:04.390Z,11.49
2018-05-12T05:47:11.112Z,11.48
2018-05-12T05:48:17.792Z,11.48
2018-05-12T05:49:24.528Z,11.48
2018-05-12T05:50:31.278Z,11.48
2018-05-12T05:51:37.962Z,11.48
2018-05-12T05:52:44.675Z,11.46
2018-05-12T05:53:51.351Z,11.48
2018-05-12T05:54:58.093Z,11.48
2018-05-12T05:56:04.775Z,11.47
2018-05-12T05:57:11.735Z,11.47
2018-05-12T05:58:18.559Z,11.47
2018-05-12T05:59:25.324Z,11.48
2018-05-12T06:00:32.154Z,11.47
2018-05-12T06:01:38.876Z,11.48
2018-05-12T06:02:45.592Z,11.49
2018-05-12T06:03:52.286Z,11.48
2018-05-12T06:04:58.996Z,11.47
2018-05-12T06:06:05.864Z,11.48
2018-05-12T06:07:12.598Z,11.47
2018-05-12T06:08:19.325Z,11.48
2018-05-12T06:09:26.060Z,11.48
2018-05-12T06:10:32.843Z,11.49
2018-05-12T06:11:40.003Z,11.48
2018-05-12T06:12:46.712Z,11.48
2018-05-12T06:13:53.515Z,11.50
2018-05-12T06:15:00.243Z,11.48
2018-05-12T06:16:07.060Z,11.49
2018-05-12T06:17:13.747Z,11.50
2018-05-12T06:18:20.496Z,11.50
2018-05-12T06:19:27.259Z,11.52
2018-05-12T06:20:33.937Z,11.51
2018-05-12T06:21:42.008Z,11.52
2018-05-12T06:22:47.955Z,11.53
2018-05-12T06:23:54.634Z,11.54
2018-05-12T06:25:01.371Z,11.54
2018-05-12T06:26:08.098Z,11.54
2018-05-12T06:27:17.832Z,11.56
2018-05-12T06:28:26.508Z,11.57
2018-05-12T06:29:33.558Z,11.55
2018-05-12T06:30:40.270Z,11.58
2018-05-12T06:31:47.098Z,11.59
2018-05-12T06:32:54.148Z,11.59
2018-05-12T06:34:00.847Z,11.60
2018-05-12T06:35:07.577Z,11.61
2018-05-12T06:36:14.311Z,11.62
2018-05-12T06:37:21.094Z,11.62
2018-05-12T06:38:27.875Z,11.65
2018-05-12T06:39:34.623Z,11.65
2018-05-12T06:40:41.339Z,11.66
2018-05-12T06:41:48.070Z,11.67
2018-05-12T06:42:54.767Z,11.68
2018-05-12T06:44:01.483Z,11.69
2018-05-12T06:45:08.255Z,11.70
2018-05-12T06:46:14.938Z,11.72
2018-05-12T06:47:21.660Z,11.74
2018-05-12T06:48:28.400Z,11.74
2018-05-12T06:49:35.154Z,11.76
2018-05-12T06:50:41.940Z,11.78
2018-05-12T06:51:48.759Z,11.78
2018-05-12T06:52:55.464Z,11.80
2018-05-12T06:54:02.185Z,11.82
2018-05-12T06:55:09.012Z,11.83
2018-05-12T06:56:15.818Z,11.86
2018-05-12T06:57:22.537Z,11.86
2018-05-12T06:58:29.233Z,11.87
2018-05-12T06:59:35.931Z,11.89
2018-05-12T07:00:42.702Z,11.91
2018-05-12T07:01:49.456Z,11.92
2018-05-12T07:02:56.154Z,11.94
2018-05-12T07:04:02.867Z,11.96
2018-05-12T07:05:09.632Z,11.97
2018-05-12T07:06:16.422Z,11.98
2018-05-12T07:07:23.114Z,12.00
2018-05-12T07:08:29.926Z,12.02
2018-05-12T07:09:36.639Z,12.03
2018-05-12T07:10:43.342Z,12.06
2018-05-12T07:11:50.147Z,12.07
2018-05-12T07:12:56.835Z,12.09
2018-05-12T07:14:03.539Z,12.09
2018-05-12T07:15:10.281Z,12.13
2018-05-12T07:16:17.036Z,12.15
2018-05-12T07:17:23.726Z,12.16
2018-05-12T07:18:30.543Z,12.18
2018-05-12T07:19:37.244Z,12.20
2018-05-12T07:20:44.113Z,12.23
2018-05-12T07:21:51.027Z,12.25
2018-05-12T07:22:57.761Z,12.27
2018-05-12T07:24:04.512Z,12.29
2018-05-12T07:25:11.264Z,12.30
2018-05-12T07:26:18.047Z,12.32
2018-05-12T07:27:24.723Z,12.35
2018-05-12T07:28:31.458Z,12.36
2018-05-12T07:29:38.343Z,12.38
2018-05-12T07:30:45.258Z,12.40
2018-05-12T07:31:51.971Z,12.42
2018-05-12T07:32:58.671Z,12.43
2018-05-12T07:34:05.608Z,12.47
2018-05-12T07:35:12.334Z,12.49
2018-05-12T07:36:19.055Z,12.51
2018-05-12T07:37:25.772Z,12.54
2018-05-12T07:38:32.507Z,12.56
2018-05-12T07:39:39.280Z,12.58
2018-05-12T07:40:45.983Z,12.59
2018-05-12T07:41:52.815Z,12.61
2018-05-12T07:42:59.512Z,12.64
2018-05-12T07:44:06.323Z,12.67
2018-05-12T07:45:13.063Z,12.70
2018-05-12T07:46:19.806Z,12.71
2018-05-12T07:47:26.755Z,12.73
2018-05-12T07:48:33.501Z,12.75
2018-05-12T07:49:40.193Z,12.79
2018-05-12T07:50:46.931Z,12.80
2018-05-12T07:51:53.630Z,12.83
2018-05-12T07:53:00.331Z,12.86
2018-05-12T07:54:07.129Z,12.89
2018-05-12T07:55:13.868Z,12.89
2018-05-12T07:56:20.671Z,12.93
2018-05-12T07:57:27.363Z,12.94
2018-05-12T07:58:34.063Z,12.97
2018-05-12T07:59:40.832Z,13.01
2018-05-12T08:00:47.583Z,13.02
2018-05-12T08:01:54.315Z,13.06
2018-05-12T08:03:01.033Z,13.08
2018-05-12T08:04:07.755Z,13.10
2018-05-12T08:05:14.573Z,13.14
2018-05-12T08:06:21.283Z,13.15
2018-05-12T08:07:28.138Z,13.19
2018-05-12T08:08:34.844Z,13.22
2018-05-12T08:09:41.641Z,13.23
2018-05-12T08:10:48.391Z,13.28
2018-05-12T08:11:55.305Z,13.31
2018-05-12T08:13:02.079Z,13.32
2018-05-12T08:14:08.847Z,13.35
2018-05-12T08:15:15.590Z,13.38
2018-05-12T08:16:22.284Z,13.40
2018-05-12T08:17:29.130Z,13.42
2018-05-12T08:18:35.836Z,13.47
2018-05-12T08:19:42.535Z,13.48
2018-05-12T08:20:49.234Z,13.51
2018-05-12T08:21:56.007Z,13.54
2018-05-12T08:24:09.746Z,13.60
2018-05-12T08:25:16.495Z,13.62
2018-05-12T08:26:23.326Z,13.66
2018-05-12T08:27:30.068Z,13.69
2018-05-12T08:28:36.843Z,13.71
2018-05-12T08:29:43.692Z,13.74
2018-05-12T08:30:50.493Z,13.77
2018-05-12T08:31:57.240Z,13.81
2018-05-12T08:33:03.965Z,13.84
2018-05-12T08:34:10.758Z,13.86
2018-05-12T08:35:17.511Z,13.89
2018-05-12T08:36:24.262Z,13.93
2018-05-12T08:37:31.022Z,13.95
2018-05-12T08:38:37.852Z,14.00
2018-05-12T08:39:44.640Z,14.02
2018-05-12T08:40:51.420Z,14.05
2018-05-12T08:41:58.143Z,14.08
2018-05-12T08:43:04.922Z,14.11
2018-05-12T08:44:11.679Z,14.15
2018-05-12T08:45:18.412Z,14.18
2018-05-12T08:46:25.162Z,14.22
2018-05-12T08:47:32.016Z,14.24
2018-05-12T08:48:38.778Z,14.28
2018-05-12T08:49:45.512Z,14.30
2018-05-12T08:50:52.301Z,14.33
2018-05-12T08:51:59.071Z,14.36
2018-05-12T08:54:13.050Z,14.42
2018-05-12T08:55:19.788Z,14.46
2018-05-12T08:56:26.459Z,14.50
2018-05-12T08:57:33.127Z,14.53
2018-05-12T08:58:40.566Z,14.57
2018-05-12T08:59:47.252Z,14.61
2018-05-12T09:00:54.102Z,14.64
2018-05-12T09:02:00.879Z,14.68
2018-05-12T09:03:07.563Z,14.71
2018-05-12T09:04:14.362Z,14.73
2018-05-12T09:05:21.063Z,14.78
2018-05-12T09:06:27.994Z,14.80
2018-05-12T09:07:34.810Z,14.83
2018-05-12T09:08:41.508Z,14.88
2018-05-12T09:09:48.215Z,14.92
2018-05-12T09:10:54.931Z,14.95
2018-05-12T09:12:01.733Z,14.99
2018-05-12T09:13:08.430Z,15.01
2018-05-12T09:14:15.145Z,15.06
2018-05-12T09:15:21.852Z,15.08
2018-05-12T09:16:28.563Z,15.11
2018-05-12T09:17:35.309Z,15.13
2018-05-12T09:18:42.092Z,15.18
2018-05-12T09:19:48.768Z,15.21
2018-05-12T09:20:55.751Z,15.23
2018-05-12T09:22:02.549Z,15.28
2018-05-12T09:23:09.283Z,15.30
2018-05-12T09:24:16.034Z,15.33
2018-05-12T09:25:22.748Z,15.37
2018-05-12T09:26:29.470Z,15.41
2018-05-12T09:27:36.292Z,15.45
2018-05-12T09:28:43.047Z,15.47
2018-05-12T09:29:49.782Z,15.50
2018-05-12T09:30:56.527Z,15.54
2018-05-12T09:32:03.334Z,15.57
2018-05-12T09:33:10.083Z,15.61
2018-05-12T09:34:16.805Z,15.63
2018-05-12T09:35:23.542Z,15.67
2018-05-12T09:36:30.280Z,15.70
2018-05-12T09:37:37.060Z,15.73
2018-05-12T09:38:43.822Z,15.77
2018-05-12T09:39:50.648Z,15.79
2018-05-12T09:40:57.414Z,15.83
2018-05-12T09:42:04.163Z,15.86
2018-05-12T09:43:10.883Z,15.89
2018-05-12T09:44:17.634Z,15.91
2018-05-12T09:45:24.387Z,15.95
2018-05-12T09:46:31.095Z,15.98
2018-05-12T09:47:37.783Z,16.01
2018-05-12T09:48:44.590Z,16.03
2018-05-12T09:49:51.338Z,16.07
2018-05-12T09:50:58.083Z,16.11
2018-05-12T09:52:04.820Z,16.13
2018-05-12T09:53:11.526Z,16.15
2018-05-12T09:54:18.358Z,16.20
2018-05-12T09:55:25.082Z,16.23
2018-05-12T09:56:31.812Z,16.26
2018-05-12T09:57:38.562Z,16.27
2018-05-12T09:59:54.559Z,16.33
2018-05-12T10:01:01.407Z,16.37
2018-05-12T10:02:08.167Z,16.40
2018-05-12T10:03:14.892Z,16.44
2018-05-12T10:04:21.705Z,16.48
2018-05-12T10:05:28.419Z,16.51
2018-05-12T10:06:35.152Z,16.53
2018-05-12T10:07:42.311Z,16.56
2018-05-12T10:08:49.072Z,16.61
2018-05-12T10:09:55.779Z,16.63
2018-05-12T10:11:02.524Z,16.66
2018-05-12T10:12:09.274Z,16.68
2018-05-12T10:13:16.288Z,16.73
2018-05-12T10:14:23.079Z,16.75
2018-05-12T10:15:29.909Z,16.77
2018-05-12T10:16:36.902Z,16.80
2018-05-12T10:17:43.671Z,16.84
2018-05-12T10:18:50.479Z,16.87
2018-05-12T10:19:57.331Z,16.90
2018-05-12T10:21:04.127Z,16.91
2018-05-12T10:22:10.887Z,16.96
2018-05-12T10:23:17.627Z,16.98
2018-05-12T10:24:24.434Z,17.00
2018-05-12T10:25:31.162Z,17.05
2018-05-12T10:26:37.948Z,17.08
2018-05-12T10:27:44.666Z,17.11
2018-05-12T10:28:51.656Z,17.14
2018-05-12T10:29:58.403Z,17.15
2018-05-12T10:31:05.163Z,17.19
2018-05-12T10:32:11.963Z,17.22
2018-05-12T10:33:18.726Z,17.26
2018-05-12T10:34:25.513Z,17.28
2018-05-12T10:35:32.380Z,17.31
2018-05-12T10:36:39.131Z,17.34
2018-05-12T10:37:45.968Z,17.37
2018-05-12T10:38:52.883Z,17.40
2018-05-12T10:39:59.635Z,17.45
2018-05-12T10:41:06.428Z,17.46
2018-05-12T10:42:13.240Z,17.49
2018-05-12T10:43:19.975Z,17.53
2018-05-12T10:44:26.759Z,17.55
2018-05-12T10:45:33.513Z,17.59
2018-05-12T10:46:40.339Z,17.61
2018-05-12T10:47:47.083Z,17.63
2018-05-12T10:48:53.832Z,17.66
2018-05-12T10:50:00.603Z,17.68
2018-05-12T10:51:07.443Z,17.71
2018-05-12T10:52:14.248Z,17.74
2018-05-12T10:53:21.020Z,17.78
2018-05-12T10:54:27.826Z,17.80
2018-05-12T10:55:34.549Z,17.82
2018-05-12T10:56:41.346Z,17.86
2018-05-12T10:57:48.083Z,17.88
2018-05-12T10:58:54.927Z,17.92
2018-05-12T11:00:01.745Z,17.95
2018-05-12T11:01:08.726Z,17.97
2018-05-12T11:02:15.495Z,17.99
2018-05-12T11:03:22.247Z,18.02
2018-05-12T11:04:28.953Z,18.06
2018-05-12T11:05:35.751Z,18.08
2018-05-12T11:06:42.510Z,18.10
2018-05-12T11:07:49.223Z,18.15
2018-05-12T11:08:55.963Z,18.16
2018-05-12T11:10:02.703Z,18.19
2018-05-12T11:11:09.509Z,18.21
2018-05-12T11:12:16.254Z,18.24
2018-05-12T11:13:22.988Z,18.27
2018-05-12T11:14:29.737Z,18.28
2018-05-12T11:15:36.477Z,18.32
2018-05-12T11:16:43.248Z,18.35
2018-05-12T11:17:50.167Z,18.36
2018-05-12T11:18:57.042Z,18.40
2018-05-12T11:20:03.811Z,18.43
2018-05-12T11:21:10.594Z,18.45
2018-05-12T11:22:17.390Z,18.48
2018-05-12T11:23:24.143Z,18.51
2018-05-12T11:24:30.891Z,18.53
2018-05-12T11:25:37.663Z,18.56
2018-05-12T11:26:44.481Z,18.58
2018-05-12T11:27:51.237Z,18.61
2018-05-12T11:28:57.985Z,18.63
2018-05-12T11:30:04.830Z,18.66
2018-05-12T11:31:11.581Z,18.70
2018-05-12T11:32:18.345Z,18.70
2018-05-12T11:33:25.160Z,18.73
2018-05-12T11:34:31.907Z,18.77
2018-05-12T11:35:38.623Z,18.79
2018-05-12T11:36:45.475Z,18.82
2018-05-12T11:37:52.206Z,18.84
2018-05-12T11:38:59.027Z,18.87
2018-05-12T11:40:05.895Z,18.90
2018-05-12T11:41:12.622Z,18.91
2018-05-12T11:42:19.404Z,18.95
2018-05-12T11:43:26.178Z,18.95
2018-05-12T11:44:33.056Z,18.99
2018-05-12T11:45:39.714Z,19.01
2018-05-12T11:46:46.504Z,19.04
2018-05-12T11:47:53.246Z,19.06
2018-05-12T11:49:00.050Z,19.09
2018-05-12T11:50:06.799Z,19.11
2018-05-12T11:51:13.603Z,19.14
2018-05-12T11:52:20.369Z,19.17
2018-05-12T11:53:27.151Z,19.19
2018-05-12T11:54:33.879Z,19.20
2018-05-12T11:55:40.603Z,19.24
2018-05-12T11:56:47.412Z,19.26
2018-05-12T11:57:54.227Z,19.27
2018-05-12T11:59:01.080Z,19.31
2018-05-12T12:00:07.850Z,19.33
2018-05-12T12:01:14.667Z,19.35
2018-05-12T12:02:21.513Z,19.37
2018-05-12T12:03:28.212Z,19.39
2018-05-12T12:04:34.935Z,19.43
2018-05-12T12:05:41.753Z,19.44
2018-05-12T12:06:48.527Z,19.47
2018-05-12T12:07:55.270Z,19.51
2018-05-12T12:09:03.766Z,19.52
2018-05-12T12:12:22.472Z,19.58
2018-05-12T12:13:29.299Z,19.61
2018-05-12T12:14:36.073Z,19.63
2018-05-12T12:15:42.891Z,19.66
2018-05-12T12:16:49.772Z,19.69
2018-05-12T12:17:56.515Z,19.71
2018-05-12T12:19:03.356Z,19.74
2018-05-12T12:20:10.226Z,19.76
2018-05-12T12:21:17.014Z,19.78
2018-05-12T12:22:23.869Z,19.80
2018-05-12T12:23:30.667Z,19.82
2018-05-12T12:24:37.422Z,19.84
2018-05-12T12:25:44.135Z,19.87
2018-05-12T12:26:50.891Z,19.89
2018-05-12T12:27:57.758Z,19.91
2018-05-12T12:29:04.543Z,19.91
2018-05-12T12:30:11.540Z,19.93
2018-05-12T12:31:18.315Z,19.96
2018-05-12T12:32:25.058Z,19.97
2018-05-12T12:33:31.859Z,19.99
2018-05-12T12:34:38.673Z,20.01
2018-05-12T12:35:45.551Z,20.05
2018-05-12T12:36:52.442Z,20.06
2018-05-12T12:37:59.183Z,20.09
2018-05-12T12:39:05.979Z,20.12
2018-05-12T12:40:12.941Z,20.13
2018-05-12T12:41:19.716Z,20.16
2018-05-12T12:42:26.670Z,20.18
2018-05-12T12:43:33.416Z,20.19
2018-05-12T12:44:40.136Z,20.21
2018-05-12T12:45:46.900Z,20.24
2018-05-12T12:46:53.719Z,20.26
2018-05-12T12:48:00.484Z,20.27
2018-05-12T12:49:07.272Z,20.29
2018-05-12T12:50:14.117Z,20.32
2018-05-12T12:51:20.879Z,20.34
2018-05-12T12:52:27.722Z,20.35
2018-05-12T12:53:34.525Z,20.37
2018-05-12T12:54:41.291Z,20.40
2018-05-12T12:55:48.052Z,20.43
2018-05-12T12:56:55.040Z,20.44
2018-05-12T12:58:01.842Z,20.46
2018-05-12T12:59:08.676Z,20.48
2018-05-12T13:00:15.447Z,20.49
2018-05-12T13:01:22.174Z,20.52
2018-05-12T13:02:28.912Z,20.54
2018-05-12T13:03:35.656Z,20.56
2018-05-12T13:04:42.528Z,20.58
2018-05-12T13:05:49.408Z,20.60
2018-05-12T13:06:56.295Z,20.61
2018-05-12T13:08:03.027Z,20.64
2018-05-12T13:09:09.791Z,20.66
2018-05-12T13:10:16.503Z,20.68
2018-05-12T13:11:23.222Z,20.68
2018-05-12T13:12:30.025Z,20.70
2018-05-12T13:13:36.749Z,20.73
2018-05-12T13:14:43.559Z,20.74
2018-05-12T13:15:50.279Z,20.77
2018-05-12T13:16:57.107Z,20.77
2018-05-12T13:18:03.805Z,20.79
2018-05-12T13:19:10.569Z,20.84
2018-05-12T13:20:17.327Z,20.85
2018-05-12T13:21:24.188Z,20.86
2018-05-12T13:22:31.264Z,20.87
2018-05-12T13:23:38.015Z,20.89
2018-05-12T13:24:44.773Z,20.90
2018-05-12T13:25:51.864Z,20.93
2018-05-12T13:26:58.216Z,20.95
2018-05-12T13:28:05.090Z,20.97
2018-05-12T13:29:12.015Z,20.98
2018-05-12T13:30:18.798Z,21.01
2018-05-12T13:31:25.547Z,21.01
2018-05-12T13:32:32.383Z,21.04
2018-05-12T13:33:39.128Z,21.06
2018-05-12T13:34:46.894Z,21.09
2018-05-12T13:35:52.711Z,21.10
2018-05-12T13:36:59.562Z,21.11
2018-05-12T13:38:06.291Z,21.12
2018-05-12T13:39:13.107Z,21.14
2018-05-12T13:40:20.048Z,21.16
2018-05-12T13:41:26.744Z,21.19
2018-05-12T13:42:33.566Z,21.20
2018-05-12T13:43:40.442Z,21.21
2018-05-12T13:44:47.320Z,21.24
2018-05-12T13:45:54.370Z,21.25
2018-05-12T13:47:01.163Z,21.27
2018-05-12T13:48:07.842Z,21.28
2018-05-12T13:49:14.630Z,21.29
2018-05-12T13:50:21.420Z,21.31
2018-05-12T13:51:28.213Z,21.34
2018-05-12T13:52:34.980Z,21.36
2018-05-12T13:53:41.767Z,21.36
2018-05-12T13:54:49.835Z,21.39
2018-05-12T13:55:55.871Z,21.38
2018-05-12T13:57:02.663Z,21.41
2018-05-12T13:58:09.610Z,21.43
2018-05-12T13:59:16.399Z,21.45
2018-05-12T14:00:23.301Z,21.46
2018-05-12T14:01:30.141Z,21.48
2018-05-12T14:02:36.936Z,21.49
2018-05-12T14:03:44.148Z,21.52
2018-05-12T14:04:51.035Z,21.53
2018-05-12T14:05:58.269Z,21.54
2018-05-12T14:07:05.083Z,21.54
2018-05-12T14:08:12.015Z,21.55
2018-05-12T14:09:19.170Z,21.57
2018-05-12T14:10:25.970Z,21.59
2018-05-12T14:11:32.899Z,21.60
2018-05-12T14:12:39.895Z,21.62
2018-05-12T14:13:46.683Z,21.64
2018-05-12T14:14:53.443Z,21.65
2018-05-12T14:16:00.717Z,21.67
2018-05-12T14:17:06.939Z,21.69
2018-05-12T14:18:13.825Z,21.70
2018-05-12T14:19:20.881Z,21.71
2018-05-12T14:20:27.639Z,21.73
2018-05-12T14:21:34.449Z,21.74
2018-05-12T14:22:41.242Z,21.75
2018-05-12T14:23:48.048Z,21.76
2018-05-12T14:24:54.775Z,21.78
2018-05-12T14:26:01.763Z,21.79